sensor_id;sensor_type;location;lat;lon;timestamp;temperature;humidity
7704;DHT22;3894;49.700;10.770;2023-01-13T00:02:10;8.40;99.90
7704;DHT22;3894;49.700;10.770;2023-01-13T00:04:35;8.40;99.90
7704;DHT22;3894;49.700;10.770;2023-01-13T00:07:01;8.40;99.90
7704;DHT22;3894;49.700;10.770;2023-01-13T00:09:26;8.30;99.90
7704;DHT22;3894;49.700;10.770;2023-01-13T00:11:52;8.30;99.90
7704;DHT22;3894;49.700;10.770;2023-01-13T00:14:17;8.30;99.90
7704;DHT22;3894;49.700;10.770;2023-01-13T00:16:43;8.30;99.90
7704;DHT22;3894;49.700;10.770;2023-01-13T00:19:08;8.20;99.90
7704;DHT22;3894;49.700;10.770;2023-01-13T00:21:34;8.20;99.90
7704;DHT22;3894;49.700;10.770;2023-01-13T00:24:00;8.10;99.90
7704;DHT22;3894;49.700;10.770;2023-01-13T00:26:27;8.10;99.90
7704;DHT22;3894;49.700;10.770;2023-01-13T00:28:58;8.10;99.90
7704;DHT22;3894;49.700;10.770;2023-01-13T00:31:24;8.00;99.90
7704;DHT22;3894;49.700;10.770;2023-01-13T00:33:49;8.00;99.90
7704;DHT22;3894;49.700;10.770;2023-01-13T00:36:16;8.00;99.90
7704;DHT22;3894;49.700;10.770;2023-01-13T00:38:42;7.90;99.90
7704;DHT22;3894;49.700;10.770;2023-01-13T00:41:11;7.90;99.90
7704;DHT22;3894;49.700;10.770;2023-01-13T00:43:37;7.90;99.90
7704;DHT22;3894;49.700;10.770;2023-01-13T00:46:04;7.90;99.90
7704;DHT22;3894;49.700;10.770;2023-01-13T00:48:30;7.90;99.90
7704;DHT22;3894;49.700;10.770;2023-01-13T00:51:02;7.90;99.90
7704;DHT22;3894;49.700;10.770;2023-01-13T00:53:29;7.90;99.90
7704;DHT22;3894;49.700;10.770;2023-01-13T00:56:01;7.90;99.90
7704;DHT22;3894;49.700;10.770;2023-01-13T00:58:29;7.90;99.90
7704;DHT22;3894;49.700;10.770;2023-01-13T01:01:01;7.90;99.90
7704;DHT22;3894;49.700;10.770;2023-01-13T01:03:28;7.80;99.90
7704;DHT22;3894;49.700;10.770;2023-01-13T01:05:54;7.80;99.90
7704;DHT22;3894;49.700;10.770;2023-01-13T01:08:20;7.80;99.90
7704;DHT22;3894;49.700;10.770;2023-01-13T01:10:46;7.80;99.90
7704;DHT22;3894;49.700;10.770;2023-01-13T01:13:11;7.80;99.90
7704;DHT22;3894;49.700;10.770;2023-01-13T01:15:44;7.90;99.90
7704;DHT22;3894;49.700;10.770;2023-01-13T01:18:12;7.90;99.90
7704;DHT22;3894;49.700;10.770;2023-01-13T01:20:37;7.90;99.90
7704;DHT22;3894;49.700;10.770;2023-01-13T01:23:03;7.90;99.90
7704;DHT22;3894;49.700;10.770;2023-01-13T01:25:28;7.90;99.90
7704;DHT22;3894;49.700;10.770;2023-01-13T01:27:54;7.90;99.90
7704;DHT22;3894;49.700;10.770;2023-01-13T01:30:19;8.00;99.90
7704;DHT22;3894;49.700;10.770;2023-01-13T01:32:45;8.00;99.90
7704;DHT22;3894;49.700;10.770;2023-01-13T01:35:10;8.00;99.90
7704;DHT22;3894;49.700;10.770;2023-01-13T01:37:36;8.10;99.90
7704;DHT22;3894;49.700;10.770;2023-01-13T01:40:01;8.10;99.90
7704;DHT22;3894;49.700;10.770;2023-01-13T01:42:27;8.10;99.90
7704;DHT22;3894;49.700;10.770;2023-01-13T01:45:19;8.20;99.90
7704;DHT22;3894;49.700;10.770;2023-01-13T01:47:47;8.20;99.90
7704;DHT22;3894;49.700;10.770;2023-01-13T01:50:14;8.20;99.90
7704;DHT22;3894;49.700;10.770;2023-01-13T01:52:43;8.20;99.90
7704;DHT22;3894;49.700;10.770;2023-01-13T01:55:17;8.30;99.90
7704;DHT22;3894;49.700;10.770;2023-01-13T01:57:52;8.30;99.90
7704;DHT22;3894;49.700;10.770;2023-01-13T02:00:19;8.30;99.90
7704;DHT22;3894;49.700;10.770;2023-01-13T02:02:47;8.30;99.90
7704;DHT22;3894;49.700;10.770;2023-01-13T02:05:13;8.30;99.90
7704;DHT22;3894;49.700;10.770;2023-01-13T02:07:41;8.30;99.90
7704;DHT22;3894;49.700;10.770;2023-01-13T02:10:10;8.40;99.90
7704;DHT22;3894;49.700;10.770;2023-01-13T02:12:36;8.30;99.90
7704;DHT22;3894;49.700;10.770;2023-01-13T02:15:10;8.40;99.90
7704;DHT22;3894;49.700;10.770;2023-01-13T02:17:47;8.40;99.90
7704;DHT22;3894;49.700;10.770;2023-01-13T02:23:19;8.40;99.90
7704;DHT22;3894;49.700;10.770;2023-01-13T02:26:27;8.50;99.90
7704;DHT22;3894;49.700;10.770;2023-01-13T02:28:59;8.40;99.90
7704;DHT22;3894;49.700;10.770;2023-01-13T02:31:51;8.50;99.90
7704;DHT22;3894;49.700;10.770;2023-01-13T02:34:28;8.50;99.90
7704;DHT22;3894;49.700;10.770;2023-01-13T02:37:06;8.50;99.90
7704;DHT22;3894;49.700;10.770;2023-01-13T02:39:49;8.50;99.90
7704;DHT22;3894;49.700;10.770;2023-01-13T02:45:12;8.50;99.90
7704;DHT22;3894;49.700;10.770;2023-01-13T02:47:41;8.50;99.90
7704;DHT22;3894;49.700;10.770;2023-01-13T02:50:17;8.50;99.90
7704;DHT22;3894;49.700;10.770;2023-01-13T02:52:50;8.50;99.90
7704;DHT22;3894;49.700;10.770;2023-01-13T02:55:28;8.50;99.90
7704;DHT22;3894;49.700;10.770;2023-01-13T02:57:55;8.50;99.90
7704;DHT22;3894;49.700;10.770;2023-01-13T03:00:23;8.50;99.90
7704;DHT22;3894;49.700;10.770;2023-01-13T03:02:48;8.50;99.90
7704;DHT22;3894;49.700;10.770;2023-01-13T03:05:15;8.50;99.90
7704;DHT22;3894;49.700;10.770;2023-01-13T03:10:25;8.50;99.90
7704;DHT22;3894;49.700;10.770;2023-01-13T03:13:18;8.50;99.90
7704;DHT22;3894;49.700;10.770;2023-01-13T03:16:00;8.50;99.90
7704;DHT22;3894;49.700;10.770;2023-01-13T03:18:51;8.40;99.90
7704;DHT22;3894;49.700;10.770;2023-01-13T03:21:27;8.50;99.90
7704;DHT22;3894;49.700;10.770;2023-01-13T03:24:05;8.50;99.90
7704;DHT22;3894;49.700;10.770;2023-01-13T03:26:38;8.50;99.90
7704;DHT22;3894;49.700;10.770;2023-01-13T03:29:16;8.40;99.90
7704;DHT22;3894;49.700;10.770;2023-01-13T03:34:42;8.50;99.90
7704;DHT22;3894;49.700;10.770;2023-01-13T03:37:12;8.50;99.90
7704;DHT22;3894;49.700;10.770;2023-01-13T03:39:43;8.50;99.90
7704;DHT22;3894;49.700;10.770;2023-01-13T03:42:17;8.60;99.90
7704;DHT22;3894;49.700;10.770;2023-01-13T03:44:49;8.60;99.90
7704;DHT22;3894;49.700;10.770;2023-01-13T03:50:13;8.60;99.90
7704;DHT22;3894;49.700;10.770;2023-01-13T03:52:44;8.50;99.90
7704;DHT22;3894;49.700;10.770;2023-01-13T03:55:20;8.50;99.90
7704;DHT22;3894;49.700;10.770;2023-01-13T03:57:58;8.50;99.90
7704;DHT22;3894;49.700;10.770;2023-01-13T04:00:36;8.50;99.90
7704;DHT22;3894;49.700;10.770;2023-01-13T04:03:10;8.50;99.90
7704;DHT22;3894;49.700;10.770;2023-01-13T04:05:41;8.50;99.90
7704;DHT22;3894;49.700;10.770;2023-01-13T04:08:18;8.60;99.90
7704;DHT22;3894;49.700;10.770;2023-01-13T04:13:20;8.50;99.90
7704;DHT22;3894;49.700;10.770;2023-01-13T04:15:47;8.60;99.90
7704;DHT22;3894;49.700;10.770;2023-01-13T04:18:28;8.60;99.90
7704;DHT22;3894;49.700;10.770;2023-01-13T04:20:57;8.60;99.90
7704;DHT22;3894;49.700;10.770;2023-01-13T04:23:23;8.60;99.90
7704;DHT22;3894;49.700;10.770;2023-01-13T04:25:49;8.50;99.90
7704;DHT22;3894;49.700;10.770;2023-01-13T04:28:15;8.50;99.90
7704;DHT22;3894;49.700;10.770;2023-01-13T04:30:42;8.50;99.90
7704;DHT22;3894;49.700;10.770;2023-01-13T04:33:08;8.50;99.90
7704;DHT22;3894;49.700;10.770;2023-01-13T04:35:35;8.50;99.90
7704;DHT22;3894;49.700;10.770;2023-01-13T04:38:02;8.50;99.90
7704;DHT22;3894;49.700;10.770;2023-01-13T04:40:28;8.50;99.90
7704;DHT22;3894;49.700;10.770;2023-01-13T04:42:53;8.50;99.90
7704;DHT22;3894;49.700;10.770;2023-01-13T04:45:19;8.50;99.90
7704;DHT22;3894;49.700;10.770;2023-01-13T04:47:45;8.50;99.90
7704;DHT22;3894;49.700;10.770;2023-01-13T04:50:11;8.40;99.90
7704;DHT22;3894;49.700;10.770;2023-01-13T04:52:37;8.40;99.90
7704;DHT22;3894;49.700;10.770;2023-01-13T04:55:03;8.40;99.90
7704;DHT22;3894;49.700;10.770;2023-01-13T04:57:29;8.40;99.90
7704;DHT22;3894;49.700;10.770;2023-01-13T04:59:54;8.40;99.90
7704;DHT22;3894;49.700;10.770;2023-01-13T05:02:20;8.40;99.90
7704;DHT22;3894;49.700;10.770;2023-01-13T05:04:46;8.40;99.90
7704;DHT22;3894;49.700;10.770;2023-01-13T05:07:13;8.40;99.90
7704;DHT22;3894;49.700;10.770;2023-01-13T05:09:38;8.40;99.90
7704;DHT22;3894;49.700;10.770;2023-01-13T05:12:04;8.50;99.90
7704;DHT22;3894;49.700;10.770;2023-01-13T05:14:48;8.50;99.90
7704;DHT22;3894;49.700;10.770;2023-01-13T05:17:32;8.40;99.90
7704;DHT22;3894;49.700;10.770;2023-01-13T05:19:58;8.50;99.90
7704;DHT22;3894;49.700;10.770;2023-01-13T05:22:23;8.50;99.90
7704;DHT22;3894;49.700;10.770;2023-01-13T05:25:11;8.40;99.90
7704;DHT22;3894;49.700;10.770;2023-01-13T05:27:49;8.40;99.90
7704;DHT22;3894;49.700;10.770;2023-01-13T05:30:15;8.40;99.90
7704;DHT22;3894;49.700;10.770;2023-01-13T05:32:41;8.40;99.90
7704;DHT22;3894;49.700;10.770;2023-01-13T05:35:07;8.40;99.90
7704;DHT22;3894;49.700;10.770;2023-01-13T05:37:32;8.40;99.90
7704;DHT22;3894;49.700;10.770;2023-01-13T05:39:58;8.40;99.90
7704;DHT22;3894;49.700;10.770;2023-01-13T05:42:42;8.40;99.90
7704;DHT22;3894;49.700;10.770;2023-01-13T05:45:27;8.40;99.90
7704;DHT22;3894;49.700;10.770;2023-01-13T05:47:53;8.40;99.90
7704;DHT22;3894;49.700;10.770;2023-01-13T05:50:19;8.40;99.90
7704;DHT22;3894;49.700;10.770;2023-01-13T05:52:44;8.40;99.90
7704;DHT22;3894;49.700;10.770;2023-01-13T05:55:11;8.40;99.90
7704;DHT22;3894;49.700;10.770;2023-01-13T05:57:36;8.40;99.90
7704;DHT22;3894;49.700;10.770;2023-01-13T06:00:03;8.40;99.90
7704;DHT22;3894;49.700;10.770;2023-01-13T06:02:29;8.50;99.90
7704;DHT22;3894;49.700;10.770;2023-01-13T06:04:54;8.50;99.90
7704;DHT22;3894;49.700;10.770;2023-01-13T06:07:19;8.50;99.90
7704;DHT22;3894;49.700;10.770;2023-01-13T06:09:45;8.50;99.90
7704;DHT22;3894;49.700;10.770;2023-01-13T06:12:11;8.40;99.90
7704;DHT22;3894;49.700;10.770;2023-01-13T06:14:37;8.40;99.90
7704;DHT22;3894;49.700;10.770;2023-01-13T06:17:10;8.40;99.90
7704;DHT22;3894;49.700;10.770;2023-01-13T06:19:36;8.40;99.90
7704;DHT22;3894;49.700;10.770;2023-01-13T06:22:23;8.40;99.90
7704;DHT22;3894;49.700;10.770;2023-01-13T06:24:49;8.40;99.90
7704;DHT22;3894;49.700;10.770;2023-01-13T06:27:18;8.40;99.90
7704;DHT22;3894;49.700;10.770;2023-01-13T06:29:44;8.40;99.90
7704;DHT22;3894;49.700;10.770;2023-01-13T06:32:18;8.40;99.90
7704;DHT22;3894;49.700;10.770;2023-01-13T06:34:48;8.40;99.90
7704;DHT22;3894;49.700;10.770;2023-01-13T06:37:19;8.40;99.90
7704;DHT22;3894;49.700;10.770;2023-01-13T06:39:49;8.40;99.90
7704;DHT22;3894;49.700;10.770;2023-01-13T06:42:15;8.40;99.90
7704;DHT22;3894;49.700;10.770;2023-01-13T06:44:59;8.40;99.90
7704;DHT22;3894;49.700;10.770;2023-01-13T06:47:25;8.50;99.90
7704;DHT22;3894;49.700;10.770;2023-01-13T06:49:50;8.50;99.90
7704;DHT22;3894;49.700;10.770;2023-01-13T06:52:16;8.40;99.90
7704;DHT22;3894;49.700;10.770;2023-01-13T06:54:42;8.50;99.90
7704;DHT22;3894;49.700;10.770;2023-01-13T06:57:07;8.40;99.90
7704;DHT22;3894;49.700;10.770;2023-01-13T06:59:33;8.40;99.90
7704;DHT22;3894;49.700;10.770;2023-01-13T07:01:59;8.50;99.90
7704;DHT22;3894;49.700;10.770;2023-01-13T07:04:25;8.50;99.90
7704;DHT22;3894;49.700;10.770;2023-01-13T07:06:50;8.50;99.90
7704;DHT22;3894;49.700;10.770;2023-01-13T07:09:16;8.50;99.90
7704;DHT22;3894;49.700;10.770;2023-01-13T07:11:42;8.60;99.90
7704;DHT22;3894;49.700;10.770;2023-01-13T07:14:07;8.60;99.90
7704;DHT22;3894;49.700;10.770;2023-01-13T07:16:51;8.60;99.90
7704;DHT22;3894;49.700;10.770;2023-01-13T07:19:18;8.60;99.90
7704;DHT22;3894;49.700;10.770;2023-01-13T07:21:49;8.60;99.90
7704;DHT22;3894;49.700;10.770;2023-01-13T07:24:14;8.60;99.90
7704;DHT22;3894;49.700;10.770;2023-01-13T07:26:40;8.70;99.90
7704;DHT22;3894;49.700;10.770;2023-01-13T07:29:05;8.70;99.90
7704;DHT22;3894;49.700;10.770;2023-01-13T07:31:31;8.60;99.90
7704;DHT22;3894;49.700;10.770;2023-01-13T07:33:56;8.70;99.90
7704;DHT22;3894;49.700;10.770;2023-01-13T07:36:22;8.70;99.90
7704;DHT22;3894;49.700;10.770;2023-01-13T07:38:47;8.70;99.90
7704;DHT22;3894;49.700;10.770;2023-01-13T07:41:13;8.60;99.90
7704;DHT22;3894;49.700;10.770;2023-01-13T07:43:58;8.70;99.90
7704;DHT22;3894;49.700;10.770;2023-01-13T07:46:24;8.70;99.90
7704;DHT22;3894;49.700;10.770;2023-01-13T07:48:50;8.70;99.90
7704;DHT22;3894;49.700;10.770;2023-01-13T07:51:15;8.70;99.90
7704;DHT22;3894;49.700;10.770;2023-01-13T07:53:41;8.80;99.90
7704;DHT22;3894;49.700;10.770;2023-01-13T07:56:07;8.80;99.90
7704;DHT22;3894;49.700;10.770;2023-01-13T07:58:34;8.80;99.90
7704;DHT22;3894;49.700;10.770;2023-01-13T08:01:09;8.80;99.90
7704;DHT22;3894;49.700;10.770;2023-01-13T08:03:36;8.80;99.90
7704;DHT22;3894;49.700;10.770;2023-01-13T08:06:02;8.80;99.90
7704;DHT22;3894;49.700;10.770;2023-01-13T08:08:28;8.80;99.90
7704;DHT22;3894;49.700;10.770;2023-01-13T08:10:58;8.80;99.90
7704;DHT22;3894;49.700;10.770;2023-01-13T08:13:23;8.80;99.90
7704;DHT22;3894;49.700;10.770;2023-01-13T08:15:51;8.80;99.90
7704;DHT22;3894;49.700;10.770;2023-01-13T08:18:18;8.80;99.90
7704;DHT22;3894;49.700;10.770;2023-01-13T08:20:45;8.80;99.90
7704;DHT22;3894;49.700;10.770;2023-01-13T08:23:12;8.80;99.90
7704;DHT22;3894;49.700;10.770;2023-01-13T08:25:38;8.90;99.90
7704;DHT22;3894;49.700;10.770;2023-01-13T08:28:03;8.90;99.90
7704;DHT22;3894;49.700;10.770;2023-01-13T08:30:29;9.00;99.90
7704;DHT22;3894;49.700;10.770;2023-01-13T08:32:55;9.00;99.90
7704;DHT22;3894;49.700;10.770;2023-01-13T08:35:21;9.00;99.90
7704;DHT22;3894;49.700;10.770;2023-01-13T08:37:47;9.00;99.90
7704;DHT22;3894;49.700;10.770;2023-01-13T08:40:14;9.00;99.90
7704;DHT22;3894;49.700;10.770;2023-01-13T08:42:40;8.90;99.90
7704;DHT22;3894;49.700;10.770;2023-01-13T08:45:07;8.90;99.90
7704;DHT22;3894;49.700;10.770;2023-01-13T08:47:32;8.90;99.90
7704;DHT22;3894;49.700;10.770;2023-01-13T08:49:58;8.90;99.90
7704;DHT22;3894;49.700;10.770;2023-01-13T08:52:24;8.90;99.90
7704;DHT22;3894;49.700;10.770;2023-01-13T08:54:49;8.90;99.90
7704;DHT22;3894;49.700;10.770;2023-01-13T08:57:15;8.90;99.90
7704;DHT22;3894;49.700;10.770;2023-01-13T08:59:43;8.80;99.90
7704;DHT22;3894;49.700;10.770;2023-01-13T09:02:12;8.80;99.90
7704;DHT22;3894;49.700;10.770;2023-01-13T09:04:38;8.70;99.90
7704;DHT22;3894;49.700;10.770;2023-01-13T09:07:04;8.50;99.90
7704;DHT22;3894;49.700;10.770;2023-01-13T09:09:29;8.30;99.90
7704;DHT22;3894;49.700;10.770;2023-01-13T09:11:55;8.10;99.90
7704;DHT22;3894;49.700;10.770;2023-01-13T09:14:39;8.00;99.90
7704;DHT22;3894;49.700;10.770;2023-01-13T09:17:05;7.90;99.90
7704;DHT22;3894;49.700;10.770;2023-01-13T09:19:32;7.80;99.90
7704;DHT22;3894;49.700;10.770;2023-01-13T09:21:58;7.80;99.90
7704;DHT22;3894;49.700;10.770;2023-01-13T09:24:24;7.80;99.90
7704;DHT22;3894;49.700;10.770;2023-01-13T09:26:50;7.80;99.90
7704;DHT22;3894;49.700;10.770;2023-01-13T09:29:16;7.70;99.90
7704;DHT22;3894;49.700;10.770;2023-01-13T09:31:42;7.80;99.90
7704;DHT22;3894;49.700;10.770;2023-01-13T09:34:14;7.80;99.90
7704;DHT22;3894;49.700;10.770;2023-01-13T09:36:59;7.80;99.90
7704;DHT22;3894;49.700;10.770;2023-01-13T09:39:25;7.80;99.90
7704;DHT22;3894;49.700;10.770;2023-01-13T09:41:53;7.80;99.90
7704;DHT22;3894;49.700;10.770;2023-01-13T09:44:44;7.80;99.90
7704;DHT22;3894;49.700;10.770;2023-01-13T09:52:38;7.80;99.90
7704;DHT22;3894;49.700;10.770;2023-01-13T09:57:54;7.90;99.90
7704;DHT22;3894;49.700;10.770;2023-01-13T10:00:22;7.80;99.90
7704;DHT22;3894;49.700;10.770;2023-01-13T10:03:13;7.90;99.90
7704;DHT22;3894;49.700;10.770;2023-01-13T10:05:46;7.90;99.90
7704;DHT22;3894;49.700;10.770;2023-01-13T10:08:27;7.90;99.90
7704;DHT22;3894;49.700;10.770;2023-01-13T10:10:56;7.90;99.90
7704;DHT22;3894;49.700;10.770;2023-01-13T10:13:28;7.90;99.90
7704;DHT22;3894;49.700;10.770;2023-01-13T10:16:06;7.90;99.90
7704;DHT22;3894;49.700;10.770;2023-01-13T10:19:18;7.80;99.90
7704;DHT22;3894;49.700;10.770;2023-01-13T10:27:06;7.80;99.90
7704;DHT22;3894;49.700;10.770;2023-01-13T10:29:35;7.80;99.90
7704;DHT22;3894;49.700;10.770;2023-01-13T10:32:01;7.80;99.90
7704;DHT22;3894;49.700;10.770;2023-01-13T10:34:27;7.80;99.90
7704;DHT22;3894;49.700;10.770;2023-01-13T10:36:55;7.80;99.90
7704;DHT22;3894;49.700;10.770;2023-01-13T10:39:24;7.90;99.90
7704;DHT22;3894;49.700;10.770;2023-01-13T10:42:00;7.90;99.90
7704;DHT22;3894;49.700;10.770;2023-01-13T10:44:26;7.90;99.90
7704;DHT22;3894;49.700;10.770;2023-01-13T10:46:57;8.00;99.90
7704;DHT22;3894;49.700;10.770;2023-01-13T10:49:34;8.00;99.90
7704;DHT22;3894;49.700;10.770;2023-01-13T10:52:01;8.10;99.90
7704;DHT22;3894;49.700;10.770;2023-01-13T10:54:27;8.00;99.90
7704;DHT22;3894;49.700;10.770;2023-01-13T10:59:45;8.10;99.90
7704;DHT22;3894;49.700;10.770;2023-01-13T11:02:26;8.20;99.90
7704;DHT22;3894;49.700;10.770;2023-01-13T11:07:32;8.60;99.90
7704;DHT22;3894;49.700;10.770;2023-01-13T11:10:27;8.50;99.90
7704;DHT22;3894;49.700;10.770;2023-01-13T11:15:33;8.30;99.90
7704;DHT22;3894;49.700;10.770;2023-01-13T11:18:04;8.20;99.90
7704;DHT22;3894;49.700;10.770;2023-01-13T11:20:36;8.20;99.90
7704;DHT22;3894;49.700;10.770;2023-01-13T11:23:28;8.20;99.90
7704;DHT22;3894;49.700;10.770;2023-01-13T11:26:05;8.20;99.90
7704;DHT22;3894;49.700;10.770;2023-01-13T11:28:51;8.30;99.90
7704;DHT22;3894;49.700;10.770;2023-01-13T11:31:30;8.30;99.90
7704;DHT22;3894;49.700;10.770;2023-01-13T11:34:11;8.40;99.90
7704;DHT22;3894;49.700;10.770;2023-01-13T11:36:46;8.40;99.90
7704;DHT22;3894;49.700;10.770;2023-01-13T11:39:33;8.30;99.90
7704;DHT22;3894;49.700;10.770;2023-01-13T11:45:29;8.30;99.90
7704;DHT22;3894;49.700;10.770;2023-01-13T11:47:59;8.30;99.90
7704;DHT22;3894;49.700;10.770;2023-01-13T11:50:46;8.40;99.90
7704;DHT22;3894;49.700;10.770;2023-01-13T11:53:56;8.50;99.90
7704;DHT22;3894;49.700;10.770;2023-01-13T12:02:17;8.50;99.90
7704;DHT22;3894;49.700;10.770;2023-01-13T12:05:03;8.50;99.90
7704;DHT22;3894;49.700;10.770;2023-01-13T12:10:52;8.40;99.90
7704;DHT22;3894;49.700;10.770;2023-01-13T12:16:26;8.40;99.90
7704;DHT22;3894;49.700;10.770;2023-01-13T12:22:08;8.30;99.90
7704;DHT22;3894;49.700;10.770;2023-01-13T12:25:06;8.30;99.90
7704;DHT22;3894;49.700;10.770;2023-01-13T12:27:45;8.30;99.90
7704;DHT22;3894;49.700;10.770;2023-01-13T12:30:25;8.20;99.90
7704;DHT22;3894;49.700;10.770;2023-01-13T12:33:02;8.20;99.90
7704;DHT22;3894;49.700;10.770;2023-01-13T12:36:07;8.30;99.90
7704;DHT22;3894;49.700;10.770;2023-01-13T12:38:51;8.30;99.90
7704;DHT22;3894;49.700;10.770;2023-01-13T12:44:27;8.30;99.90
7704;DHT22;3894;49.700;10.770;2023-01-13T12:46:54;8.30;99.90
7704;DHT22;3894;49.700;10.770;2023-01-13T12:49:31;8.30;99.90
7704;DHT22;3894;49.700;10.770;2023-01-13T12:52:13;8.40;99.90
7704;DHT22;3894;49.700;10.770;2023-01-13T13:02:30;8.50;99.90
7704;DHT22;3894;49.700;10.770;2023-01-13T13:05:00;8.50;99.90
7704;DHT22;3894;49.700;10.770;2023-01-13T13:07:47;8.60;99.90
7704;DHT22;3894;49.700;10.770;2023-01-13T13:10:30;8.50;99.90
7704;DHT22;3894;49.700;10.770;2023-01-13T13:12:59;8.40;99.90
7704;DHT22;3894;49.700;10.770;2023-01-13T13:15:48;8.40;99.90
7704;DHT22;3894;49.700;10.770;2023-01-13T13:21:28;8.50;99.90
7704;DHT22;3894;49.700;10.770;2023-01-13T13:23:56;8.50;99.90
7704;DHT22;3894;49.700;10.770;2023-01-13T13:26:38;8.60;99.90
7704;DHT22;3894;49.700;10.770;2023-01-13T13:34:50;8.50;99.90
7704;DHT22;3894;49.700;10.770;2023-01-13T13:37:30;8.50;99.90
7704;DHT22;3894;49.700;10.770;2023-01-13T13:39:57;8.60;99.90
7704;DHT22;3894;49.700;10.770;2023-01-13T13:42:55;8.70;99.90
7704;DHT22;3894;49.700;10.770;2023-01-13T13:45:49;9.00;99.90
7704;DHT22;3894;49.700;10.770;2023-01-13T13:48:34;9.20;99.90
7704;DHT22;3894;49.700;10.770;2023-01-13T13:51:13;9.10;99.90
7704;DHT22;3894;49.700;10.770;2023-01-13T13:53:45;9.00;99.90
7704;DHT22;3894;49.700;10.770;2023-01-13T13:56:22;9.00;99.90
7704;DHT22;3894;49.700;10.770;2023-01-13T13:58:49;9.00;99.90
7704;DHT22;3894;49.700;10.770;2023-01-13T14:01:23;9.00;99.90
7704;DHT22;3894;49.700;10.770;2023-01-13T14:04:14;8.90;99.90
7704;DHT22;3894;49.700;10.770;2023-01-13T14:06:53;8.80;99.90
7704;DHT22;3894;49.700;10.770;2023-01-13T14:09:21;8.70;99.90
7704;DHT22;3894;49.700;10.770;2023-01-13T14:11:55;8.70;99.90
7704;DHT22;3894;49.700;10.770;2023-01-13T14:14:22;8.70;99.90
7704;DHT22;3894;49.700;10.770;2023-01-13T14:16:48;8.70;99.90
7704;DHT22;3894;49.700;10.770;2023-01-13T14:21:50;8.50;99.90
7704;DHT22;3894;49.700;10.770;2023-01-13T14:24:16;8.50;99.90
7704;DHT22;3894;49.700;10.770;2023-01-13T14:26:44;8.40;99.90
7704;DHT22;3894;49.700;10.770;2023-01-13T14:29:19;8.40;99.90
7704;DHT22;3894;49.700;10.770;2023-01-13T14:31:46;8.30;99.90
7704;DHT22;3894;49.700;10.770;2023-01-13T14:34:13;8.30;99.90
7704;DHT22;3894;49.700;10.770;2023-01-13T14:36:39;8.30;99.90
7704;DHT22;3894;49.700;10.770;2023-01-13T14:44:22;8.20;99.90
7704;DHT22;3894;49.700;10.770;2023-01-13T14:46:50;8.10;99.90
7704;DHT22;3894;49.700;10.770;2023-01-13T14:52:23;8.20;99.90
7704;DHT22;3894;49.700;10.770;2023-01-13T14:54:51;8.20;99.90
7704;DHT22;3894;49.700;10.770;2023-01-13T14:57:27;8.20;99.90
7704;DHT22;3894;49.700;10.770;2023-01-13T15:00:22;8.20;99.90
7704;DHT22;3894;49.700;10.770;2023-01-13T15:03:12;8.10;99.90
7704;DHT22;3894;49.700;10.770;2023-01-13T15:05:39;8.10;99.90
7704;DHT22;3894;49.700;10.770;2023-01-13T15:10:54;8.00;99.90
7704;DHT22;3894;49.700;10.770;2023-01-13T15:13:43;8.00;99.90
7704;DHT22;3894;49.700;10.770;2023-01-13T15:16:21;8.00;99.90
7704;DHT22;3894;49.700;10.770;2023-01-13T15:18:47;7.90;99.90
7704;DHT22;3894;49.700;10.770;2023-01-13T15:21:13;7.90;99.90
7704;DHT22;3894;49.700;10.770;2023-01-13T15:23:40;7.80;99.90
7704;DHT22;3894;49.700;10.770;2023-01-13T15:26:24;7.70;99.90
7704;DHT22;3894;49.700;10.770;2023-01-13T15:28:52;7.80;99.90
7704;DHT22;3894;49.700;10.770;2023-01-13T15:31:18;7.70;99.90
7704;DHT22;3894;49.700;10.770;2023-01-13T15:33:44;7.60;99.90
7704;DHT22;3894;49.700;10.770;2023-01-13T15:36:23;7.60;99.90
7704;DHT22;3894;49.700;10.770;2023-01-13T15:38:50;7.60;99.90
7704;DHT22;3894;49.700;10.770;2023-01-13T15:41:16;7.50;99.90
7704;DHT22;3894;49.700;10.770;2023-01-13T15:43:41;7.40;99.90
7704;DHT22;3894;49.700;10.770;2023-01-13T15:46:25;7.40;99.90
7704;DHT22;3894;49.700;10.770;2023-01-13T15:49:19;7.40;99.90
7704;DHT22;3894;49.700;10.770;2023-01-13T15:51:47;7.30;99.90
7704;DHT22;3894;49.700;10.770;2023-01-13T15:54:13;7.30;99.90
7704;DHT22;3894;49.700;10.770;2023-01-13T15:56:39;7.20;99.90
7704;DHT22;3894;49.700;10.770;2023-01-13T15:59:17;7.20;99.90
7704;DHT22;3894;49.700;10.770;2023-01-13T16:01:44;7.10;99.90
7704;DHT22;3894;49.700;10.770;2023-01-13T16:04:10;7.10;99.90
7704;DHT22;3894;49.700;10.770;2023-01-13T16:06:36;7.10;99.90
7704;DHT22;3894;49.700;10.770;2023-01-13T16:09:03;7.10;99.90
7704;DHT22;3894;49.700;10.770;2023-01-13T16:11:29;7.10;99.90
7704;DHT22;3894;49.700;10.770;2023-01-13T16:13:55;7.00;99.90
7704;DHT22;3894;49.700;10.770;2023-01-13T16:16:23;7.00;99.90
7704;DHT22;3894;49.700;10.770;2023-01-13T16:18:49;7.00;99.90
7704;DHT22;3894;49.700;10.770;2023-01-13T16:21:15;7.00;99.90
7704;DHT22;3894;49.700;10.770;2023-01-13T16:23:43;7.00;99.90
7704;DHT22;3894;49.700;10.770;2023-01-13T16:28:44;7.00;99.90
7704;DHT22;3894;49.700;10.770;2023-01-13T16:31:28;7.00;99.90
7704;DHT22;3894;49.700;10.770;2023-01-13T16:33:58;7.00;99.90
7704;DHT22;3894;49.700;10.770;2023-01-13T16:36:24;7.00;99.90
7704;DHT22;3894;49.700;10.770;2023-01-13T16:38:51;7.00;99.90
7704;DHT22;3894;49.700;10.770;2023-01-13T16:41:18;7.00;99.90
7704;DHT22;3894;49.700;10.770;2023-01-13T16:43:45;6.90;99.90
7704;DHT22;3894;49.700;10.770;2023-01-13T16:46:24;6.90;99.90
7704;DHT22;3894;49.700;10.770;2023-01-13T16:48:51;6.80;99.90
7704;DHT22;3894;49.700;10.770;2023-01-13T16:51:18;6.80;99.90
7704;DHT22;3894;49.700;10.770;2023-01-13T16:53:44;6.70;99.90
7704;DHT22;3894;49.700;10.770;2023-01-13T16:56:17;6.70;99.90
7704;DHT22;3894;49.700;10.770;2023-01-13T16:58:44;6.60;99.90
7704;DHT22;3894;49.700;10.770;2023-01-13T17:01:21;6.60;99.90
7704;DHT22;3894;49.700;10.770;2023-01-13T17:03:47;6.60;99.90
7704;DHT22;3894;49.700;10.770;2023-01-13T17:06:15;6.50;99.90
7704;DHT22;3894;49.700;10.770;2023-01-13T17:08:41;6.50;99.90
7704;DHT22;3894;49.700;10.770;2023-01-13T17:11:07;6.50;99.90
7704;DHT22;3894;49.700;10.770;2023-01-13T17:13:32;6.50;99.90
7704;DHT22;3894;49.700;10.770;2023-01-13T17:15:58;6.50;99.90
7704;DHT22;3894;49.700;10.770;2023-01-13T17:18:24;6.50;99.90
7704;DHT22;3894;49.700;10.770;2023-01-13T17:21:16;6.50;99.90
7704;DHT22;3894;49.700;10.770;2023-01-13T17:23:42;6.50;99.90
7704;DHT22;3894;49.700;10.770;2023-01-13T17:26:21;6.50;99.90
7704;DHT22;3894;49.700;10.770;2023-01-13T17:28:49;6.40;99.90
7704;DHT22;3894;49.700;10.770;2023-01-13T17:31:15;6.40;99.90
7704;DHT22;3894;49.700;10.770;2023-01-13T17:33:40;6.40;99.90
7704;DHT22;3894;49.700;10.770;2023-01-13T17:36:06;6.40;99.90
7704;DHT22;3894;49.700;10.770;2023-01-13T17:38:32;6.40;99.90
7704;DHT22;3894;49.700;10.770;2023-01-13T17:41:02;6.30;99.90
7704;DHT22;3894;49.700;10.770;2023-01-13T17:43:29;6.30;99.90
7704;DHT22;3894;49.700;10.770;2023-01-13T17:45:55;6.30;99.90
7704;DHT22;3894;49.700;10.770;2023-01-13T17:48:22;6.30;99.90
7704;DHT22;3894;49.700;10.770;2023-01-13T17:50:48;6.30;99.90
7704;DHT22;3894;49.700;10.770;2023-01-13T17:53:18;6.30;99.90
7704;DHT22;3894;49.700;10.770;2023-01-13T17:55:51;6.30;99.90
7704;DHT22;3894;49.700;10.770;2023-01-13T17:58:21;6.30;99.90
7704;DHT22;3894;49.700;10.770;2023-01-13T18:00:47;6.30;99.90